PWSweather.com
Personal Weather Stations
Station Observations
KGRPEEBLES
PeeblesGB EH45 9LX

PeeblesGB EH45 9LX

Lat: 55.64096, Lon: -3.170893

Elevation: 517

Station Type: Watson W-8681

Latest ConditionsUpdated 6:30:03 AM GMT Wednesday, Apr 25, 2018
Currently Today's Max Today's Min Today's Average
Temperature 44.8°F7.1°C 45.3°F7.4°C 43.5°F6.4°C 44.4°F6.9°C
Dew Point 39.6°F4.2°C 40.8°F4.9°C 38.4°F3.6°C 39.6°F4.2°C
Winds 3.2 mph WNW5.1 kmh WNW 4.9 mph NW7.9 kmh NW - 3.0 mph 4.8 kmh
Wind Gusts 6.0 mph9.7 kmh 9.2 mph14.8 kmh - -
Humidity 82% 84% 81% 83%
Pressure 29.54 in1000.3 mb 29.54 in1000.3 mb 29.53 in1000.0 mb -
Hour Temp Dew Point Humidity Winds Wind Gusts Pressure Precip Precip Rate Daily Precip Total
06:30 AM 44.8°F7.1°C 39.6°F4.2°C 82% 3.2 mph WNW5.1 kmh WNW 6.0 mph9.7 kmh 29.54 in1000.3 mb 0.00 in0.0 mm 0.00 in0.0 mm 0.00 in0.0 mm
06:15 AM 44.4°F6.9°C 39.3°F4.1°C 82% 4.5 mph S7.2 kmh S 6.9 mph11.1 kmh 29.53 in1000.0 mb 0.00 in0.0 mm 0.00 in0.0 mm 0.00 in0.0 mm
06:00 AM 44.2°F6.8°C 39.1°F3.9°C 82% 4.1 mph WSW6.6 kmh WSW 6.9 mph11.1 kmh 29.54 in1000.3 mb 0.00 in0.0 mm 0.00 in0.0 mm 0.00 in0.0 mm
05:45 AM 44.1°F6.7°C 38.9°F3.8°C 82% 3.8 mph N6.1 kmh N 5.4 mph8.7 kmh 29.53 in1000.0 mb 0.00 in0.0 mm 0.00 in0.0 mm 0.00 in0.0 mm
05:30 AM 43.7°F6.5°C 38.6°F3.7°C 82% 2.0 mph W3.2 kmh W 3.1 mph5.0 kmh 29.53 in1000.0 mb 0.00 in0.0 mm 0.00 in0.0 mm 0.00 in0.0 mm
05:15 AM 43.5°F6.4°C 38.4°F3.6°C 82% 2.8 mph SSW4.5 kmh SSW 4.5 mph7.2 kmh 29.53 in1000.0 mb 0.00 in0.0 mm 0.00 in0.0 mm 0.00 in0.0 mm
05:00 AM 43.7°F6.5°C 38.6°F3.7°C 82% 4.1 mph WNW6.6 kmh WNW 6.9 mph11.1 kmh 29.53 in1000.0 mb 0.00 in0.0 mm 0.00 in0.0 mm 0.00 in0.0 mm
04:45 AM 43.7°F6.5°C 38.6°F3.7°C 82% 3.1 mph NW5.0 kmh NW 7.6 mph12.2 kmh 29.54 in1000.3 mb 0.00 in0.0 mm 0.00 in0.0 mm 0.00 in0.0 mm
04:30 AM 44.1°F6.7°C 38.6°F3.7°C 81% 3.4 mph WNW5.5 kmh WNW 9.2 mph14.8 kmh 29.54 in1000.3 mb 0.00 in0.0 mm 0.00 in0.0 mm 0.00 in0.0 mm
04:15 AM 44.2°F6.8°C 39.1°F3.9°C 82% 3.5 mph NW5.6 kmh NW 6.0 mph9.7 kmh 29.53 in1000.0 mb 0.00 in0.0 mm 0.00 in0.0 mm 0.00 in0.0 mm
04:00 AM 44.1°F6.7°C 39.2°F4.0°C 83% 3.2 mph N5.1 kmh N 4.5 mph7.2 kmh 29.53 in1000.0 mb 0.00 in0.0 mm 0.00 in0.0 mm 0.00 in0.0 mm
03:45 AM 44.1°F6.7°C 39.5°F4.2°C 84% 3.3 mph WNW5.3 kmh WNW 6.9 mph11.1 kmh 29.53 in1000.0 mb 0.00 in0.0 mm 0.00 in0.0 mm 0.00 in0.0 mm
03:30 AM 43.9°F6.6°C 39.4°F4.1°C 84% 2.5 mph SW4.0 kmh SW 4.5 mph7.2 kmh 29.53 in1000.0 mb 0.00 in0.0 mm 0.00 in0.0 mm 0.00 in0.0 mm
03:15 AM 44.2°F6.8°C 39.7°F4.3°C 84% 3.9 mph WNW6.3 kmh WNW 7.6 mph12.2 kmh 29.54 in1000.3 mb 0.00 in0.0 mm 0.00 in0.0 mm 0.00 in0.0 mm
03:00 AM 44.2°F6.8°C 39.7°F4.3°C 84% 3.0 mph NW4.8 kmh NW 6.0 mph9.7 kmh 29.54 in1000.3 mb 0.00 in0.0 mm 0.00 in0.0 mm 0.00 in0.0 mm
02:45 AM 44.6°F7.0°C 40.1°F4.5°C 84% 2.8 mph WSW4.5 kmh WSW 6.9 mph11.1 kmh 29.54 in1000.3 mb 0.00 in0.0 mm 0.00 in0.0 mm 0.00 in0.0 mm
02:30 AM 44.6°F7.0°C 39.8°F4.3°C 83% 2.7 mph NW4.3 kmh NW 4.5 mph7.2 kmh 29.54 in1000.3 mb 0.00 in0.0 mm 0.00 in0.0 mm 0.00 in0.0 mm
02:15 AM 44.8°F7.1°C 39.9°F4.4°C 83% 2.2 mph NW3.5 kmh NW 3.8 mph6.1 kmh 29.54 in1000.3 mb 0.00 in0.0 mm 0.00 in0.0 mm 0.00 in0.0 mm
02:00 AM 45.0°F7.2°C 40.1°F4.5°C 83% 3.7 mph NW6.0 kmh NW 6.9 mph11.1 kmh 29.54 in1000.3 mb 0.00 in0.0 mm 0.00 in0.0 mm 0.00 in0.0 mm
01:45 AM 44.8°F7.1°C 39.9°F4.4°C 83% 2.7 mph W4.3 kmh W 3.8 mph6.1 kmh 29.53 in1000.0 mb 0.00 in0.0 mm 0.00 in0.0 mm 0.00 in0.0 mm
01:30 AM 45.0°F7.2°C 40.1°F4.5°C 83% 4.9 mph NW7.9 kmh NW 7.6 mph12.2 kmh 29.53 in1000.0 mb 0.00 in0.0 mm 0.00 in0.0 mm 0.00 in0.0 mm
01:15 AM 45.1°F7.3°C 40.3°F4.6°C 83% 3.9 mph W6.3 kmh W 7.6 mph12.2 kmh 29.54 in1000.3 mb 0.00 in0.0 mm 0.00 in0.0 mm 0.00 in0.0 mm
01:00 AM 45.0°F7.2°C 40.1°F4.5°C 83% 1.8 mph WSW2.9 kmh WSW 4.5 mph7.2 kmh 29.54 in1000.3 mb 0.00 in0.0 mm 0.00 in0.0 mm 0.00 in0.0 mm
12:45 AM 44.8°F7.1°C 40.2°F4.6°C 84% 1.3 mph W2.1 kmh W 3.8 mph6.1 kmh 29.53 in1000.0 mb 0.00 in0.0 mm 0.00 in0.0 mm 0.00 in0.0 mm
12:30 AM 45.0°F7.2°C 40.4°F4.7°C 84% 0.6 mph W1.0 kmh W 1.6 mph2.6 kmh 29.53 in1000.0 mb 0.00 in0.0 mm 0.00 in0.0 mm 0.00 in0.0 mm
12:15 AM 45.1°F7.3°C 40.6°F4.8°C 84% 2.0 mph WSW3.2 kmh WSW 4.5 mph7.2 kmh 29.54 in1000.3 mb 0.00 in0.0 mm 0.00 in0.0 mm 0.00 in0.0 mm
12:00 AM 45.3°F7.4°C 40.8°F4.9°C 84% 1.6 mph WSW2.6 kmh WSW 4.5 mph7.2 kmh 29.54 in1000.3 mb 0.00 in0.0 mm 0.00 in0.0 mm 0.00 in0.0 mm